createdAt,value
2017-07-01T00:00:29.543Z,41.2
2017-07-01T00:01:07.824Z,41.8
2017-07-01T00:01:45.619Z,41.4
2017-07-01T00:02:23.490Z,43.4
2017-07-01T00:03:01.068Z,44.3
2017-07-01T00:03:38.630Z,43.4
2017-07-01T00:04:16.801Z,44.5
2017-07-01T00:04:54.767Z,43.8
2017-07-01T00:05:32.441Z,44.9
2017-07-01T00:06:10.424Z,45.4
2017-07-01T00:06:48.126Z,43.9
2017-07-01T00:07:25.755Z,44.2
2017-07-01T00:08:03.535Z,44.2
2017-07-01T00:08:41.206Z,44.1
2017-07-01T00:09:18.969Z,43.6
2017-07-01T00:09:57.135Z,43.4
2017-07-01T00:10:35.111Z,43.3
2017-07-01T00:11:12.879Z,45.1
2017-07-01T00:11:50.951Z,43.9
2017-07-01T00:12:28.718Z,44.1
2017-07-01T00:13:06.483Z,44.8
2017-07-01T00:13:44.350Z,45.4
2017-07-01T00:14:22.311Z,45.9
2017-07-01T00:15:00.084Z,47.8
2017-07-01T00:15:37.957Z,48.8
2017-07-01T00:16:16.124Z,47.6
2017-07-01T00:16:53.997Z,47.9
2017-07-01T00:17:31.857Z,48.5
2017-07-01T00:18:09.935Z,46.4
2017-07-01T00:18:48.108Z,46.2
2017-07-01T00:19:25.714Z,47.1
2017-07-01T00:20:03.762Z,49.4
2017-07-01T00:20:41.432Z,49.2
2017-07-01T00:21:19.102Z,47.8
2017-07-01T00:21:56.872Z,47.0
2017-07-01T00:22:34.937Z,48.2
2017-07-01T00:23:12.908Z,48.1
2017-07-01T00:23:50.979Z,48.9
2017-07-01T00:24:29.245Z,48.3
2017-07-01T00:25:07.117Z,49.0
2017-07-01T00:25:44.991Z,49.6
2017-07-01T00:26:22.664Z,50.5
2017-07-01T00:27:00.530Z,50.7
2017-07-01T00:27:38.852Z,48.5
2017-07-01T00:28:16.621Z,48.5
2017-07-01T00:28:54.189Z,51.2
2017-07-01T00:29:32.055Z,52.1
2017-07-01T00:30:09.825Z,51.4
2017-07-01T00:30:48.100Z,52.3
2017-07-01T00:31:25.770Z,53.8
2017-07-01T00:32:03.541Z,52.1
2017-07-01T00:32:41.112Z,51.7
2017-07-01T00:33:18.785Z,53.0
2017-07-01T00:33:56.674Z,53.4
2017-07-01T00:34:34.943Z,51.9
2017-07-01T00:35:12.618Z,51.0
2017-07-01T00:35:50.392Z,53.0
2017-07-01T00:36:28.083Z,53.3
2017-07-01T00:37:06.134Z,52.8
2017-07-01T00:37:44.306Z,51.2
2017-07-01T00:38:22.171Z,50.4
2017-07-01T00:39:00.138Z,54.2
2017-07-01T00:39:38.415Z,53.9
2017-07-01T00:40:15.983Z,52.1
2017-07-01T00:40:53.756Z,51.6
2017-07-01T00:41:31.532Z,53.3
2017-07-01T00:42:09.428Z,52.2
2017-07-01T00:42:47.390Z,51.6
2017-07-01T00:43:25.258Z,52.2
2017-07-01T00:44:02.936Z,53.4
2017-07-01T00:44:40.823Z,52.1
2017-07-01T00:45:18.594Z,54.9
2017-07-01T00:45:56.468Z,55.7
2017-07-01T00:46:34.642Z,54.3
2017-07-01T00:47:12.228Z,56.0
2017-07-01T00:47:50.302Z,57.1
2017-07-01T00:48:28.071Z,56.1
2017-07-01T00:49:05.737Z,54.9
2017-07-01T00:49:43.314Z,54.2
2017-07-01T00:50:21.395Z,53.0
2017-07-01T00:50:59.171Z,56.1
2017-07-01T00:51:37.443Z,57.7
2017-07-01T00:52:15.508Z,57.7
2017-07-01T00:52:53.278Z,56.9
2017-07-01T00:53:31.256Z,57.9
2017-07-01T00:54:08.839Z,57.3
2017-07-01T00:54:46.708Z,57.4
2017-07-01T00:55:24.588Z,56.8
2017-07-01T00:56:02.760Z,58.0
2017-07-01T00:56:40.443Z,59.3
2017-07-01T00:57:18.515Z,57.4
2017-07-01T00:57:56.479Z,56.7
2017-07-01T00:58:34.452Z,55.9
2017-07-01T00:59:12.536Z,57.1
2017-07-01T00:59:50.305Z,58.5
2017-07-01T01:00:28.472Z,58.3
2017-07-01T01:01:06.643Z,58.5
2017-07-01T01:01:44.339Z,57.1
2017-07-01T01:02:22.406Z,57.4
2017-07-01T01:03:00.289Z,58.8
2017-07-01T01:03:38.462Z,56.0
2017-07-01T01:04:16.432Z,56.7
2017-07-01T01:04:54.605Z,59.4
2017-07-01T01:05:32.377Z,59.1
2017-07-01T01:06:10.359Z,57.5
2017-07-01T01:06:48.234Z,57.4
2017-07-01T01:07:26.007Z,57.1
2017-07-01T01:08:04.484Z,58.0
2017-07-01T01:08:42.550Z,59.9
2017-07-01T01:09:20.922Z,61.5
2017-07-01T01:09:58.894Z,59.5
2017-07-01T01:10:37.300Z,59.8
2017-07-01T01:11:15.066Z,57.6
2017-07-01T01:11:52.938Z,59.9
2017-07-01T01:12:30.908Z,60.2
2017-07-01T01:13:08.777Z,57.8
2017-07-01T01:13:46.354Z,57.1
2017-07-01T01:14:24.335Z,57.2
2017-07-01T01:15:02.202Z,57.6
2017-07-01T01:15:39.972Z,56.7
2017-07-01T01:16:17.647Z,58.2
2017-07-01T01:16:55.626Z,56.8
2017-07-01T01:17:33.593Z,58.3
2017-07-01T01:18:11.766Z,58.7
2017-07-01T01:18:49.659Z,57.2
2017-07-01T01:19:27.530Z,57.2
2017-07-01T01:20:05.504Z,57.3
2017-07-01T01:20:43.579Z,57.1
2017-07-01T01:21:21.677Z,58.4
2017-07-01T01:21:59.553Z,59.3
2017-07-01T01:22:37.222Z,60.7
2017-07-01T01:23:15.293Z,59.6
2017-07-01T01:23:53.157Z,59.7
2017-07-01T01:24:31.125Z,59.7
2017-07-01T01:25:08.817Z,60.3
2017-07-01T01:25:46.899Z,58.5
2017-07-01T01:26:24.468Z,57.9
2017-07-01T01:27:02.449Z,59.0
2017-07-01T01:27:40.426Z,60.7
2017-07-01T01:28:18.625Z,60.4
2017-07-01T01:28:56.601Z,58.9
2017-07-01T01:29:34.467Z,62.7
2017-07-01T01:30:12.546Z,60.4
2017-07-01T01:30:50.820Z,60.7
2017-07-01T01:31:29.099Z,63.5
2017-07-01T01:32:07.574Z,64.7
2017-07-01T01:32:45.349Z,63.1
2017-07-01T01:33:23.331Z,63.2
2017-07-01T01:34:01.500Z,61.5
2017-07-01T01:34:39.274Z,61.6
2017-07-01T01:35:17.141Z,63.5
2017-07-01T01:35:55.008Z,63.3
2017-07-01T01:36:32.786Z,64.2
2017-07-01T01:37:10.768Z,62.8
2017-07-01T01:37:48.837Z,62.6
2017-07-01T01:38:26.812Z,65.7
2017-07-01T01:39:04.487Z,63.4
2017-07-01T01:39:42.265Z,64.0
2017-07-01T01:40:20.033Z,64.2
2017-07-01T01:40:57.720Z,64.2
2017-07-01T01:41:35.896Z,64.2
2017-07-01T01:42:14.172Z,62.7
2017-07-01T01:42:52.144Z,61.8
2017-07-01T01:43:30.020Z,63.7
2017-07-01T01:44:07.784Z,64.2
2017-07-01T01:44:45.783Z,62.0
2017-07-01T01:45:23.850Z,63.0
2017-07-01T01:46:01.718Z,64.6
2017-07-01T01:46:39.697Z,63.8
2017-07-01T01:47:17.570Z,65.7
2017-07-01T01:47:55.544Z,66.0
2017-07-01T01:48:33.413Z,64.8
2017-07-01T01:49:11.282Z,67.1
2017-07-01T01:49:49.053Z,68.2
2017-07-01T01:50:26.722Z,68.5
2017-07-01T01:51:04.596Z,65.6
2017-07-01T01:51:42.467Z,66.6
2017-07-01T01:52:20.550Z,68.0
2017-07-01T01:52:58.313Z,66.1
2017-07-01T01:53:35.779Z,64.5
2017-07-01T01:54:13.766Z,63.4
2017-07-01T01:54:51.528Z,63.5
2017-07-01T01:55:29.807Z,65.7
2017-07-01T01:56:07.787Z,64.3
2017-07-01T01:56:45.771Z,63.4
2017-07-01T01:57:23.542Z,59.8
2017-07-01T01:58:01.332Z,59.4
2017-07-01T01:58:38.914Z,59.6
2017-07-01T01:59:17.119Z,60.5
2017-07-01T01:59:54.748Z,59.8
2017-07-01T02:00:32.525Z,61.4
2017-07-01T02:01:10.399Z,60.6
2017-07-01T02:01:48.068Z,61.5
2017-07-01T02:02:25.851Z,62.1
2017-07-01T02:03:03.542Z,59.4
2017-07-01T02:03:41.518Z,60.0
2017-07-01T02:04:19.268Z,60.4
2017-07-01T02:04:57.442Z,60.0
2017-07-01T02:05:35.314Z,58.6
2017-07-01T02:06:13.083Z,56.3
2017-07-01T02:06:50.873Z,58.1
2017-07-01T02:07:28.745Z,60.8
2017-07-01T02:08:06.618Z,59.1
2017-07-01T02:08:44.587Z,58.4
2017-07-01T02:09:22.361Z,58.6
2017-07-01T02:10:00.427Z,59.7
2017-07-01T02:10:38.406Z,60.1
2017-07-01T02:11:16.175Z,58.7
2017-07-01T02:11:53.859Z,61.3
2017-07-01T02:12:31.526Z,61.1
2017-07-01T02:13:09.518Z,60.4
2017-07-01T02:13:47.689Z,57.5
2017-07-01T02:14:25.379Z,59.7
2017-07-01T02:15:03.150Z,61.0
2017-07-01T02:15:40.922Z,61.0
2017-07-01T02:16:18.903Z,62.4
2017-07-01T02:16:56.776Z,58.9
2017-07-01T02:17:34.643Z,59.6
2017-07-01T02:18:12.621Z,60.1
2017-07-01T02:18:50.398Z,60.8
2017-07-01T02:19:28.468Z,59.4
2017-07-01T02:20:06.336Z,56.6
2017-07-01T02:20:44.110Z,58.8
2017-07-01T02:21:21.971Z,61.1
2017-07-01T02:22:00.148Z,61.1
2017-07-01T02:22:37.923Z,61.4
2017-07-01T02:23:15.800Z,59.8
2017-07-01T02:23:53.776Z,57.1
2017-07-01T02:24:31.536Z,59.7
2017-07-01T02:25:09.206Z,61.6
2017-07-01T02:25:47.176Z,58.1
2017-07-01T02:26:25.055Z,56.7
2017-07-01T02:27:02.933Z,56.4
2017-07-01T02:27:41.008Z,58.0
2017-07-01T02:28:18.880Z,57.9
2017-07-01T02:28:56.357Z,59.2
2017-07-01T02:29:34.024Z,61.0
2017-07-01T02:30:12.000Z,59.8
2017-07-01T02:30:49.471Z,57.3
2017-07-01T02:31:27.441Z,57.6
2017-07-01T02:32:05.410Z,59.6
2017-07-01T02:32:43.583Z,57.3
2017-07-01T02:33:21.556Z,57.0
2017-07-01T02:33:59.320Z,60.0
2017-07-01T02:34:37.199Z,55.8
2017-07-01T02:35:14.967Z,53.8
2017-07-01T02:35:52.651Z,56.5
2017-07-01T02:36:30.425Z,55.8
2017-07-01T02:37:08.196Z,55.9
2017-07-01T02:37:45.877Z,54.7
2017-07-01T02:38:23.840Z,56.6
2017-07-01T02:39:02.012Z,56.9
2017-07-01T02:39:39.886Z,55.5
2017-07-01T02:40:17.661Z,57.8
2017-07-01T02:40:55.635Z,55.7
2017-07-01T02:41:33.513Z,53.9
2017-07-01T02:42:11.385Z,54.9
2017-07-01T02:42:49.358Z,55.7
2017-07-01T02:43:27.125Z,56.6
2017-07-01T02:44:04.993Z,56.8
2017-07-01T02:44:42.672Z,55.7
2017-07-01T02:45:20.639Z,55.2
2017-07-01T02:45:58.808Z,53.5
2017-07-01T02:46:36.579Z,54.9
2017-07-01T02:47:14.653Z,57.1
2017-07-01T02:47:52.523Z,56.4
2017-07-01T02:48:30.691Z,56.3
2017-07-01T02:49:08.367Z,54.7
2017-07-01T02:49:46.342Z,55.9
2017-07-01T02:50:24.412Z,53.5
2017-07-01T02:51:02.488Z,52.3
2017-07-01T02:51:40.058Z,54.0
2017-07-01T02:52:17.927Z,52.7
2017-07-01T02:52:55.796Z,49.9
2017-07-01T02:53:33.367Z,52.0
2017-07-01T02:54:11.133Z,54.0
2017-07-01T02:54:49.107Z,52.3
2017-07-01T02:55:26.973Z,52.0
2017-07-01T02:56:04.747Z,50.1
2017-07-01T02:56:42.827Z,51.4
2017-07-01T02:57:20.792Z,52.0
2017-07-01T02:57:58.761Z,51.2
2017-07-01T02:58:36.332Z,52.2
2017-07-01T02:59:14.309Z,52.2
2017-07-01T02:59:52.181Z,53.5
2017-07-01T03:00:30.267Z,54.8
2017-07-01T03:01:08.343Z,51.6
2017-07-01T03:01:46.217Z,52.4
2017-07-01T03:02:24.397Z,52.5
2017-07-01T03:03:02.175Z,51.6
2017-07-01T03:03:39.953Z,49.2
2017-07-01T03:04:17.925Z,48.9
2017-07-01T03:04:55.894Z,48.5
2017-07-01T03:05:33.370Z,50.4
2017-07-01T03:06:11.440Z,49.9
2017-07-01T03:06:49.510Z,49.8
2017-07-01T03:07:27.183Z,49.8
2017-07-01T03:08:04.663Z,48.7
2017-07-01T03:08:42.632Z,47.9
2017-07-01T03:09:20.602Z,48.3
2017-07-01T03:09:58.671Z,48.2
2017-07-01T03:10:36.543Z,50.0
2017-07-01T03:11:14.718Z,49.3
2017-07-01T03:11:52.691Z,48.5
2017-07-01T03:12:30.545Z,49.6
2017-07-01T03:13:08.416Z,49.7
2017-07-01T03:13:46.397Z,50.0
2017-07-01T03:14:24.364Z,51.6
2017-07-01T03:15:02.037Z,50.0
2017-07-01T03:15:39.817Z,49.0
2017-07-01T03:16:17.712Z,51.1
2017-07-01T03:16:55.785Z,49.4
2017-07-01T03:17:33.557Z,49.7
2017-07-01T03:18:11.227Z,48.0
2017-07-01T03:18:48.995Z,49.6
2017-07-01T03:19:26.761Z,46.6
2017-07-01T03:20:04.632Z,47.3
2017-07-01T03:20:42.502Z,48.5
2017-07-01T03:21:20.176Z,48.8
2017-07-01T03:21:58.146Z,47.9
2017-07-01T03:22:35.721Z,50.4
2017-07-01T03:23:13.297Z,48.4
2017-07-01T03:23:50.966Z,48.3
2017-07-01T03:24:28.938Z,49.5
2017-07-01T03:25:07.111Z,49.0
2017-07-01T03:25:45.199Z,49.8
2017-07-01T03:26:24.719Z,49.9
2017-07-01T03:27:02.389Z,51.3
2017-07-01T03:27:40.165Z,49.7
2017-07-01T03:28:18.236Z,48.3
2017-07-01T03:28:56.009Z,47.2
2017-07-01T03:29:33.683Z,48.6
2017-07-01T03:30:11.548Z,48.9
2017-07-01T03:30:49.320Z,50.0
2017-07-01T03:31:27.300Z,48.8
2017-07-01T03:32:05.171Z,49.2
2017-07-01T03:32:43.038Z,49.8
2017-07-01T03:33:20.920Z,50.7
2017-07-01T03:33:58.704Z,49.9
2017-07-01T03:34:36.674Z,50.2
2017-07-01T03:35:14.347Z,50.6
2017-07-01T03:35:52.423Z,52.5
2017-07-01T03:36:30.956Z,50.5
2017-07-01T03:37:08.836Z,51.8
2017-07-01T03:37:46.910Z,52.6
2017-07-01T03:38:24.989Z,52.3
2017-07-01T03:39:02.760Z,50.0
2017-07-01T03:39:40.631Z,51.8
2017-07-01T03:40:18.706Z,52.7
2017-07-01T03:40:56.576Z,51.9
2017-07-01T03:41:34.742Z,52.8
2017-07-01T03:42:12.727Z,54.8
2017-07-01T03:42:50.499Z,55.5
2017-07-01T03:43:28.677Z,54.9
2017-07-01T03:44:06.645Z,54.7
2017-07-01T03:44:44.330Z,54.8
2017-07-01T03:45:22.304Z,55.4
2017-07-01T03:46:00.474Z,56.1
2017-07-01T03:46:38.365Z,56.7
2017-07-01T03:47:16.039Z,56.6
2017-07-01T03:47:53.715Z,56.5
2017-07-01T03:48:31.595Z,56.2
2017-07-01T03:49:09.696Z,54.3
2017-07-01T03:49:47.372Z,55.0
2017-07-01T03:50:25.342Z,54.6
2017-07-01T03:51:03.430Z,53.9
2017-07-01T03:51:41.810Z,56.3
2017-07-01T03:52:19.978Z,56.1
2017-07-01T03:52:57.648Z,56.8
2017-07-01T03:53:35.524Z,57.5
2017-07-01T03:54:13.195Z,56.6
2017-07-01T03:54:51.384Z,58.3
2017-07-01T03:55:29.663Z,58.5
2017-07-01T03:56:07.643Z,60.1
2017-07-01T03:56:45.450Z,60.6
2017-07-01T03:57:23.318Z,57.8
2017-07-01T03:58:01.492Z,58.1
2017-07-01T03:58:39.359Z,59.3
2017-07-01T03:59:17.236Z,59.3
2017-07-01T03:59:55.113Z,58.9
2017-07-01T04:00:32.891Z,59.5
2017-07-01T04:01:10.666Z,60.3
2017-07-01T04:01:48.437Z,60.7
2017-07-01T04:02:26.541Z,60.5
2017-07-01T04:03:04.410Z,59.2
2017-07-01T04:03:42.382Z,60.5
2017-07-01T04:04:20.355Z,60.3
2017-07-01T04:04:58.147Z,61.6
2017-07-01T04:05:35.817Z,62.3
2017-07-01T04:06:13.499Z,60.9
2017-07-01T04:06:51.192Z,60.6
2017-07-01T04:07:28.775Z,61.2
2017-07-01T04:08:06.641Z,60.8
2017-07-01T04:08:44.532Z,59.3
2017-07-01T04:09:22.405Z,60.4
2017-07-01T04:10:00.580Z,61.0
2017-07-01T04:10:38.462Z,60.4
2017-07-01T04:11:16.234Z,60.1
2017-07-01T04:11:53.909Z,60.2
2017-07-01T04:12:31.779Z,61.1
2017-07-01T04:13:09.560Z,61.4
2017-07-01T04:13:47.363Z,62.1
2017-07-01T04:14:25.351Z,63.7
2017-07-01T04:15:03.014Z,61.2
2017-07-01T04:15:40.891Z,61.5
2017-07-01T04:16:18.867Z,64.0
2017-07-01T04:16:56.641Z,61.8
2017-07-01T04:17:34.633Z,59.4
2017-07-01T04:18:12.718Z,62.6
2017-07-01T04:18:50.392Z,65.0
2017-07-01T04:19:28.561Z,61.4
2017-07-01T04:20:06.444Z,61.5
2017-07-01T04:20:44.519Z,60.6
2017-07-01T04:21:22.391Z,63.5
2017-07-01T04:22:00.272Z,64.5
2017-07-01T04:22:38.048Z,65.5
2017-07-01T04:23:15.829Z,65.7
2017-07-01T04:23:53.702Z,64.8
2017-07-01T04:24:31.382Z,63.1
2017-07-01T04:25:09.257Z,63.1
2017-07-01T04:25:46.733Z,64.7
2017-07-01T04:26:24.814Z,62.6
2017-07-01T04:27:02.594Z,62.6
2017-07-01T04:27:40.467Z,65.3
2017-07-01T04:28:18.346Z,66.0
2017-07-01T04:28:56.419Z,64.0
2017-07-01T04:29:34.592Z,62.6
2017-07-01T04:30:12.373Z,61.8
2017-07-01T04:30:50.354Z,63.6
2017-07-01T04:31:28.135Z,65.1
2017-07-01T04:32:06.305Z,65.4
2017-07-01T04:32:44.287Z,66.8
2017-07-01T04:33:22.360Z,62.3
2017-07-01T04:34:00.439Z,62.5
2017-07-01T04:34:38.406Z,63.1
2017-07-01T04:35:16.335Z,63.5
2017-07-01T04:35:54.314Z,64.9
2017-07-01T04:36:31.786Z,63.7
2017-07-01T04:37:09.798Z,63.3
2017-07-01T04:37:47.475Z,60.1
2017-07-01T04:38:25.052Z,59.5
2017-07-01T04:39:03.246Z,58.8
2017-07-01T04:39:40.823Z,59.4
2017-07-01T04:40:18.499Z,59.6
2017-07-01T04:40:56.464Z,60.8
2017-07-01T04:41:34.645Z,59.4
2017-07-01T04:42:12.521Z,58.7
2017-07-01T04:42:50.420Z,59.1
2017-07-01T04:43:28.295Z,57.4
2017-07-01T04:44:06.285Z,56.5
2017-07-01T04:44:44.363Z,55.5
2017-07-01T04:45:22.412Z,52.7
2017-07-01T04:46:01.093Z,57.0
2017-07-01T04:46:38.968Z,53.3
2017-07-01T04:47:16.843Z,54.0
2017-07-01T04:47:55.022Z,52.2
2017-07-01T04:48:32.605Z,52.1
2017-07-01T04:49:10.193Z,52.4
2017-07-01T04:49:47.868Z,52.2
2017-07-01T04:50:25.849Z,52.5
2017-07-01T04:51:03.828Z,52.3
2017-07-01T04:51:41.614Z,52.8
2017-07-01T04:52:19.587Z,49.8
2017-07-01T04:52:57.465Z,49.5
2017-07-01T04:53:35.848Z,48.8
2017-07-01T04:54:13.828Z,47.8
2017-07-01T04:54:51.895Z,48.6
2017-07-01T04:55:29.673Z,50.1
2017-07-01T04:56:07.345Z,50.7
2017-07-01T04:56:45.124Z,52.0
2017-07-01T04:57:22.796Z,49.9
2017-07-01T04:58:00.871Z,51.6
2017-07-01T04:58:39.458Z,52.4
2017-07-01T04:59:17.241Z,50.0
2017-07-01T04:59:55.019Z,51.8
2017-07-01T05:00:32.795Z,50.9
2017-07-01T05:01:10.475Z,48.6
2017-07-01T05:01:48.355Z,48.4
2017-07-01T05:02:25.936Z,47.0
2017-07-01T05:03:03.703Z,47.1
2017-07-01T05:03:41.485Z,47.5
2017-07-01T05:04:19.440Z,47.3
2017-07-01T05:04:57.518Z,47.1
2017-07-01T05:05:35.486Z,47.9
2017-07-01T05:06:13.172Z,48.0
2017-07-01T05:06:50.851Z,48.1
2017-07-01T05:07:28.817Z,46.6
2017-07-01T05:08:06.697Z,46.5
2017-07-01T05:08:44.570Z,48.7
2017-07-01T05:09:22.644Z,47.7
2017-07-01T05:10:00.419Z,47.6
2017-07-01T05:10:38.289Z,45.4
2017-07-01T05:11:15.959Z,44.9
2017-07-01T05:11:53.735Z,44.0
2017-07-01T05:12:31.620Z,43.6
2017-07-01T05:13:09.198Z,43.2
2017-07-01T05:13:47.375Z,43.5
2017-07-01T05:14:25.054Z,44.4
2017-07-01T05:15:02.731Z,44.7
2017-07-01T05:15:40.405Z,44.5
2017-07-01T05:16:18.279Z,44.8
2017-07-01T05:16:56.253Z,44.2
2017-07-01T05:17:33.732Z,44.0
2017-07-01T05:18:11.508Z,43.7
2017-07-01T05:18:49.292Z,44.1
2017-07-01T05:19:27.466Z,42.7
2017-07-01T05:20:05.348Z,42.4
2017-07-01T05:20:43.433Z,42.8
2017-07-01T05:21:21.406Z,40.9
2017-07-01T05:21:59.086Z,42.1
2017-07-01T05:22:36.768Z,43.0
2017-07-01T05:23:14.541Z,41.8
2017-07-01T05:23:52.221Z,40.2
2017-07-01T05:24:30.105Z,41.6
2017-07-01T05:25:07.870Z,40.4
2017-07-01T05:25:46.049Z,39.5
2017-07-01T05:26:26.380Z,39.9
2017-07-01T05:27:04.464Z,39.9
2017-07-01T05:27:42.235Z,39.3
2017-07-01T05:28:20.412Z,38.7
2017-07-01T05:28:58.189Z,37.1
2017-07-01T05:29:36.168Z,37.2
2017-07-01T05:30:13.938Z,38.1
2017-07-01T05:30:51.714Z,38.7
2017-07-01T05:31:29.489Z,36.9
2017-07-01T05:32:07.367Z,37.0
2017-07-01T05:32:45.149Z,39.2
2017-07-01T05:33:23.222Z,38.2
2017-07-01T05:34:01.113Z,37.5
2017-07-01T05:34:39.231Z,37.4
2017-07-01T05:35:17.224Z,36.5
2017-07-01T05:35:55.094Z,36.9
2017-07-01T05:36:33.180Z,36.4
2017-07-01T05:37:11.473Z,36.4
2017-07-01T05:37:49.256Z,37.1
2017-07-01T05:38:26.835Z,38.1
2017-07-01T05:39:04.911Z,37.3
2017-07-01T05:39:42.886Z,38.8
2017-07-01T05:40:20.865Z,39.2
2017-07-01T05:40:58.834Z,38.6
2017-07-01T05:41:36.624Z,37.4
2017-07-01T05:42:14.711Z,37.2
2017-07-01T05:42:52.492Z,35.9
2017-07-01T05:43:31.439Z,37.9
2017-07-01T05:44:09.410Z,37.2
2017-07-01T05:44:47.389Z,36.2
2017-07-01T05:45:24.963Z,38.9
2017-07-01T05:46:03.135Z,38.7
2017-07-01T05:46:41.116Z,38.6
2017-07-01T05:47:19.080Z,40.9
2017-07-01T05:47:57.158Z,40.8
2017-07-01T05:48:35.033Z,38.1
2017-07-01T05:49:12.810Z,39.2
2017-07-01T05:49:50.591Z,39.1
2017-07-01T05:50:28.460Z,37.9
2017-07-01T05:51:06.340Z,39.2
2017-07-01T05:51:44.212Z,40.0
2017-07-01T05:52:22.291Z,37.7
2017-07-01T05:53:00.266Z,39.1
2017-07-01T05:53:38.137Z,39.9
2017-07-01T05:54:15.916Z,39.2
2017-07-01T05:54:53.992Z,38.1
2017-07-01T05:55:31.968Z,35.9
2017-07-01T05:56:09.838Z,36.3
2017-07-01T05:56:47.714Z,36.6
2017-07-01T05:57:25.508Z,37.9
2017-07-01T05:58:03.292Z,41.0
2017-07-01T05:58:41.381Z,40.5
2017-07-01T05:59:19.255Z,39.3
2017-07-01T05:59:57.034Z,40.1
2017-07-01T06:00:34.602Z,39.1
2017-07-01T06:01:12.679Z,38.3
2017-07-01T06:01:50.760Z,38.2
2017-07-01T06:02:28.835Z,36.9
2017-07-01T06:03:07.009Z,36.5
2017-07-01T06:03:44.782Z,37.1
2017-07-01T06:04:22.563Z,36.9
2017-07-01T06:05:00.648Z,37.4
2017-07-01T06:05:39.034Z,36.7
2017-07-01T06:06:17.107Z,38.3
2017-07-01T06:06:54.981Z,38.9
2017-07-01T06:07:32.952Z,39.0
2017-07-01T06:08:10.828Z,36.5
2017-07-01T06:08:48.695Z,37.3
2017-07-01T06:09:26.968Z,37.0
2017-07-01T06:10:04.735Z,35.0
2017-07-01T06:10:42.714Z,35.7
2017-07-01T06:11:20.584Z,36.6
2017-07-01T06:11:58.454Z,34.9
2017-07-01T06:12:36.030Z,36.2
2017-07-01T06:13:13.806Z,33.8
2017-07-01T06:13:51.983Z,34.4
2017-07-01T06:14:29.755Z,33.2
2017-07-01T06:15:07.633Z,31.9
2017-07-01T06:15:45.309Z,29.6
2017-07-01T06:16:24.034Z,31.2
2017-07-01T06:17:02.321Z,29.5
2017-07-01T06:17:40.009Z,28.7
2017-07-01T06:18:17.683Z,28.7
2017-07-01T06:18:55.458Z,27.5
2017-07-01T06:19:33.040Z,23.8
2017-07-01T06:20:10.917Z,23.4
2017-07-01T06:20:48.885Z,21.8
2017-07-01T06:21:26.558Z,19.1
2017-07-01T06:22:04.435Z,18.7
2017-07-01T06:22:42.120Z,17.4
2017-07-01T06:23:19.790Z,16.4
2017-07-01T06:23:57.968Z,17.4
2017-07-01T06:24:35.542Z,19.0
2017-07-01T06:25:13.513Z,17.3
2017-07-01T06:25:51.008Z,15.1
2017-07-01T06:26:28.640Z,14.9
2017-07-01T06:27:06.618Z,13.4
2017-07-01T06:27:44.907Z,13.1
2017-07-01T06:28:22.886Z,13.6
2017-07-01T06:29:00.876Z,13.2
2017-07-01T06:29:38.649Z,12.7
2017-07-01T06:30:16.625Z,12.2
2017-07-01T06:30:54.309Z,12.2
2017-07-01T06:31:31.988Z,12.0
2017-07-01T06:32:09.565Z,10.0
2017-07-01T06:32:47.147Z,9.7
2017-07-01T06:33:25.334Z,9.4
2017-07-01T06:34:03.506Z,9.5
2017-07-01T06:34:41.376Z,10.1
2017-07-01T06:35:19.356Z,8.5
2017-07-01T06:35:58.562Z,8.4
2017-07-01T06:36:36.236Z,8.4
2017-07-01T06:37:13.834Z,8.7
2017-07-01T06:37:51.806Z,9.0
2017-07-01T06:38:29.886Z,8.6
2017-07-01T06:39:07.858Z,7.5
2017-07-01T06:39:45.746Z,8.4
2017-07-01T06:40:23.723Z,8.2
2017-07-01T06:41:01.704Z,7.3
2017-07-01T06:41:39.383Z,7.3
2017-07-01T06:42:17.145Z,7.3
2017-07-01T06:42:55.260Z,7.6
2017-07-01T06:43:33.134Z,7.1
2017-07-01T06:44:11.018Z,7.5
2017-07-01T06:44:48.795Z,7.2
2017-07-01T06:45:26.671Z,7.6
2017-07-01T06:46:04.558Z,7.5
2017-07-01T06:46:42.144Z,7.5
2017-07-01T06:47:20.220Z,7.3
2017-07-01T06:47:58.123Z,7.3
2017-07-01T06:48:35.904Z,7.5
2017-07-01T06:49:13.590Z,7.9
2017-07-01T06:49:51.274Z,8.3
2017-07-01T06:50:29.351Z,8.0
2017-07-01T06:51:07.434Z,7.6
2017-07-01T06:51:45.507Z,7.6
2017-07-01T06:52:23.388Z,7.5
2017-07-01T06:53:01.077Z,7.4
2017-07-01T06:53:38.747Z,8.0
2017-07-01T06:54:16.632Z,7.9
2017-07-01T06:54:54.521Z,7.8
2017-07-01T06:55:32.500Z,7.9
2017-07-01T06:56:10.385Z,7.9
2017-07-01T06:56:47.966Z,7.7
2017-07-01T06:57:26.070Z,8.3
2017-07-01T06:58:04.528Z,8.6
2017-07-01T06:58:42.223Z,8.4
2017-07-01T06:59:20.201Z,8.8
2017-07-01T06:59:58.178Z,8.9
2017-07-01T07:00:36.061Z,8.7
2017-07-01T07:01:14.046Z,8.5
2017-07-01T07:01:51.931Z,8.3
2017-07-01T07:02:29.609Z,8.4
2017-07-01T07:03:07.589Z,9.0
2017-07-01T07:03:45.179Z,9.1
2017-07-01T07:04:23.054Z,9.2
2017-07-01T07:05:01.035Z,8.5
2017-07-01T07:05:38.748Z,8.1
2017-07-01T07:06:16.521Z,8.9
2017-07-01T07:06:54.714Z,8.3
2017-07-01T07:07:32.590Z,8.9
2017-07-01T07:08:10.673Z,9.3
2017-07-01T07:08:48.557Z,8.6
2017-07-01T07:09:26.236Z,8.6
2017-07-01T07:10:04.224Z,9.2
2017-07-01T07:10:42.098Z,9.4
2017-07-01T07:11:20.193Z,8.8
2017-07-01T07:11:57.770Z,9.3
2017-07-01T07:12:35.457Z,9.3
2017-07-01T07:13:13.245Z,9.0
2017-07-01T07:13:51.020Z,8.3
2017-07-01T07:14:28.609Z,8.5
2017-07-01T07:15:06.592Z,8.1
2017-07-01T07:15:44.372Z,8.0
2017-07-01T07:16:24.067Z,8.2
2017-07-01T07:17:01.302Z,8.1
2017-07-01T07:17:39.682Z,8.2
2017-07-01T07:18:17.462Z,8.7
2017-07-01T07:18:54.935Z,9.0
2017-07-01T07:19:32.518Z,8.6
2017-07-01T07:20:10.299Z,8.4
2017-07-01T07:20:48.276Z,8.5
2017-07-01T07:21:26.355Z,9.0
2017-07-01T07:22:04.236Z,8.3
2017-07-01T07:22:42.017Z,8.8
2017-07-01T07:23:19.998Z,9.1
2017-07-01T07:23:58.276Z,9.0
2017-07-01T07:24:36.253Z,9.0
2017-07-01T07:25:14.132Z,9.2
2017-07-01T07:25:52.207Z,9.3
2017-07-01T07:26:30.182Z,9.6
2017-07-01T07:27:08.259Z,10.3
2017-07-01T07:27:46.444Z,10.6
2017-07-01T07:28:24.826Z,10.6
2017-07-01T07:29:02.907Z,9.5
2017-07-01T07:29:40.681Z,9.0
2017-07-01T07:30:18.560Z,10.0
2017-07-01T07:30:56.338Z,9.6
2017-07-01T07:31:34.438Z,9.6
2017-07-01T07:32:12.516Z,9.7
2017-07-01T07:32:50.592Z,9.1
2017-07-01T07:33:28.878Z,9.6
2017-07-01T07:34:06.971Z,9.3
2017-07-01T07:34:44.957Z,9.0
2017-07-01T07:35:23.041Z,9.0
2017-07-01T07:36:00.931Z,9.4
2017-07-01T07:36:38.712Z,9.7
2017-07-01T07:37:16.695Z,9.8
2017-07-01T07:37:54.369Z,8.6
2017-07-01T07:38:32.541Z,8.6
2017-07-01T07:39:10.427Z,8.6
2017-07-01T07:39:48.311Z,8.1
2017-07-01T07:40:26.195Z,8.6
2017-07-01T07:41:03.982Z,8.7
2017-07-01T07:41:41.865Z,9.2
2017-07-01T07:42:19.749Z,9.5
2017-07-01T07:42:57.435Z,8.9
2017-07-01T07:43:35.217Z,9.1
2017-07-01T07:44:13.208Z,8.1
2017-07-01T07:44:50.984Z,8.4
2017-07-01T07:45:29.064Z,8.8
2017-07-01T07:46:06.946Z,8.6
2017-07-01T07:46:44.722Z,8.2
2017-07-01T07:47:22.808Z,8.7
2017-07-01T07:48:00.689Z,9.4
2017-07-01T07:48:38.271Z,8.7
2017-07-01T07:49:16.146Z,8.5
2017-07-01T07:49:53.828Z,8.5
2017-07-01T07:50:32.021Z,8.4
2017-07-01T07:51:10.003Z,8.3
2017-07-01T07:51:47.986Z,8.1
2017-07-01T07:52:25.670Z,8.9
2017-07-01T07:53:03.541Z,9.1
2017-07-01T07:53:41.521Z,9.2
2017-07-01T07:54:19.467Z,9.0
2017-07-01T07:54:57.549Z,8.8
2017-07-01T07:55:35.526Z,8.5
2017-07-01T07:56:13.625Z,8.8
2017-07-01T07:56:51.508Z,8.6
2017-07-01T07:57:29.593Z,8.9
2017-07-01T07:58:07.568Z,9.3
2017-07-01T07:58:45.652Z,9.2
2017-07-01T07:59:23.640Z,8.7
2017-07-01T08:00:01.622Z,9.3
2017-07-01T08:00:39.410Z,8.7
2017-07-01T08:01:17.293Z,8.7
2017-07-01T08:01:54.980Z,8.8
2017-07-01T08:02:32.562Z,9.1
2017-07-01T08:03:10.545Z,8.6
2017-07-01T08:03:48.324Z,9.2
2017-07-01T08:04:26.210Z,9.0
2017-07-01T08:05:04.298Z,8.9
2017-07-01T08:05:41.885Z,9.8
2017-07-01T08:06:19.871Z,9.0
2017-07-01T08:06:57.650Z,9.4
2017-07-01T08:07:35.634Z,9.9
2017-07-01T08:08:13.518Z,8.6
2017-07-01T08:08:51.094Z,8.5
2017-07-01T08:09:28.883Z,8.7
2017-07-01T08:10:06.567Z,9.0
2017-07-01T08:10:44.550Z,8.6
2017-07-01T08:11:22.523Z,9.0
2017-07-01T08:12:00.400Z,9.1
2017-07-01T08:12:38.384Z,9.5
2017-07-01T08:13:16.477Z,9.0
2017-07-01T08:13:54.056Z,9.7
2017-07-01T08:14:32.140Z,9.5
2017-07-01T08:15:10.323Z,8.9
2017-07-01T08:15:48.104Z,9.4
2017-07-01T08:16:25.885Z,8.9
2017-07-01T08:17:03.881Z,9.2
2017-07-01T08:17:41.857Z,9.7
2017-07-01T08:18:19.745Z,9.3
2017-07-01T08:18:57.830Z,9.7
2017-07-01T08:19:35.709Z,9.7
2017-07-01T08:20:13.491Z,9.3
2017-07-01T08:20:51.391Z,9.2
2017-07-01T08:21:29.385Z,9.7
2017-07-01T08:22:06.965Z,8.5
2017-07-01T08:22:44.848Z,8.5
2017-07-01T08:23:22.639Z,8.7
2017-07-01T08:24:00.428Z,8.8
2017-07-01T08:24:38.416Z,8.1
2017-07-01T08:25:16.403Z,8.5
2017-07-01T08:25:54.189Z,8.9
2017-07-01T08:26:32.091Z,9.2
2017-07-01T08:27:10.065Z,8.4
2017-07-01T08:27:47.854Z,8.5
2017-07-01T08:28:25.649Z,8.2